sensor_id;sensor_type;location;lat;lon;timestamp;temperature;humidity
75217;HTU21D;63800;51.972;5.682;2023-04-03T00:01:54;4.41;72.59
75217;HTU21D;63800;51.972;5.682;2023-04-03T00:04:20;4.77;71.29
75217;HTU21D;63800;51.972;5.682;2023-04-03T00:06:45;4.58;71.67
75217;HTU21D;63800;51.972;5.682;2023-04-03T00:09:11;4.35;72.45
75217;HTU21D;63800;51.972;5.682;2023-04-03T00:11:36;4.27;73.28
75217;HTU21D;63800;51.972;5.682;2023-04-03T00:14:01;4.26;74.28
75217;HTU21D;63800;51.972;5.682;2023-04-03T00:16:27;4.44;71.93
75217;HTU21D;63800;51.972;5.682;2023-04-03T00:18:52;4.20;73.57
75217;HTU21D;63800;51.972;5.682;2023-04-03T00:21:18;4.31;72.09
75217;HTU21D;63800;51.972;5.682;2023-04-03T00:23:43;4.30;72.70
75217;HTU21D;63800;51.972;5.682;2023-04-03T00:26:09;4.05;74.31
75217;HTU21D;63800;51.972;5.682;2023-04-03T00:28:34;4.26;71.93
75217;HTU21D;63800;51.972;5.682;2023-04-03T00:31:00;4.24;71.83
75217;HTU21D;63800;51.972;5.682;2023-04-03T00:33:25;4.14;73.62
75217;HTU21D;63800;51.972;5.682;2023-04-03T00:35:51;4.26;72.47
75217;HTU21D;63800;51.972;5.682;2023-04-03T00:38:16;4.09;73.85
75217;HTU21D;63800;51.972;5.682;2023-04-03T00:40:44;4.00;74.24
75217;HTU21D;63800;51.972;5.682;2023-04-03T00:43:19;3.94;75.20
75217;HTU21D;63800;51.972;5.682;2023-04-03T00:45:51;4.29;71.93
75217;HTU21D;63800;51.972;5.682;2023-04-03T00:48:20;4.32;71.63
75217;HTU21D;63800;51.972;5.682;2023-04-03T00:50:47;3.95;74.92
75217;HTU21D;63800;51.972;5.682;2023-04-03T00:53:18;3.82;75.02
75217;HTU21D;63800;51.972;5.682;2023-04-03T00:55:47;3.62;76.04
75217;HTU21D;63800;51.972;5.682;2023-04-03T00:58:15;3.52;75.62
75217;HTU21D;63800;51.972;5.682;2023-04-03T01:00:44;3.49;76.47
75217;HTU21D;63800;51.972;5.682;2023-04-03T01:03:11;3.58;75.82
75217;HTU21D;63800;51.972;5.682;2023-04-03T01:05:37;3.47;75.71
75217;HTU21D;63800;51.972;5.682;2023-04-03T01:08:02;3.57;75.87
75217;HTU21D;63800;51.972;5.682;2023-04-03T01:10:28;3.33;76.86
75217;HTU21D;63800;51.972;5.682;2023-04-03T01:12:53;3.15;78.68
75217;HTU21D;63800;51.972;5.682;2023-04-03T01:15:25;3.24;77.24
75217;HTU21D;63800;51.972;5.682;2023-04-03T01:17:56;3.24;77.63
75217;HTU21D;63800;51.972;5.682;2023-04-03T01:25:41;3.13;78.22
75217;HTU21D;63800;51.972;5.682;2023-04-03T01:28:10;3.04;79.27
75217;HTU21D;63800;51.972;5.682;2023-04-03T01:30:43;2.97;79.72
75217;HTU21D;63800;51.972;5.682;2023-04-03T01:33:10;3.10;78.92
75217;HTU21D;63800;51.972;5.682;2023-04-03T01:35:37;2.98;79.37
75217;HTU21D;63800;51.972;5.682;2023-04-03T01:38:03;2.99;79.36
75217;HTU21D;63800;51.972;5.682;2023-04-03T01:40:28;3.04;80.01
75217;HTU21D;63800;51.972;5.682;2023-04-03T01:42:54;3.08;79.62
75217;HTU21D;63800;51.972;5.682;2023-04-03T01:45:20;2.99;78.44
75217;HTU21D;63800;51.972;5.682;2023-04-03T01:47:46;2.94;80.65
75217;HTU21D;63800;51.972;5.682;2023-04-03T01:50:11;2.90;80.78
75217;HTU21D;63800;51.972;5.682;2023-04-03T01:52:36;2.90;79.82
75217;HTU21D;63800;51.972;5.682;2023-04-03T01:55:02;2.93;79.86
75217;HTU21D;63800;51.972;5.682;2023-04-03T01:57:28;2.85;80.44
75217;HTU21D;63800;51.972;5.682;2023-04-03T01:59:53;2.80;81.96
75217;HTU21D;63800;51.972;5.682;2023-04-03T02:02:19;2.69;81.16
75217;HTU21D;63800;51.972;5.682;2023-04-03T02:04:48;2.84;80.94
75217;HTU21D;63800;51.972;5.682;2023-04-03T02:07:14;2.74;81.27
75217;HTU21D;63800;51.972;5.682;2023-04-03T02:09:39;2.74;80.88
75217;HTU21D;63800;51.972;5.682;2023-04-03T02:12:05;2.69;81.38
75217;HTU21D;63800;51.972;5.682;2023-04-03T02:14:30;2.71;81.07
75217;HTU21D;63800;51.972;5.682;2023-04-03T02:16:56;2.74;82.52
75217;HTU21D;63800;51.972;5.682;2023-04-03T02:19:22;2.88;81.49
75217;HTU21D;63800;51.972;5.682;2023-04-03T02:21:47;2.80;81.59
75217;HTU21D;63800;51.972;5.682;2023-04-03T02:24:13;2.88;80.88
75217;HTU21D;63800;51.972;5.682;2023-04-03T02:26:38;2.68;83.20
75217;HTU21D;63800;51.972;5.682;2023-04-03T02:29:03;2.67;81.94
75217;HTU21D;63800;51.972;5.682;2023-04-03T02:31:29;2.69;82.13
75217;HTU21D;63800;51.972;5.682;2023-04-03T02:33:54;2.56;82.81
75217;HTU21D;63800;51.972;5.682;2023-04-03T02:36:20;2.69;82.35
75217;HTU21D;63800;51.972;5.682;2023-04-03T02:38:45;2.74;82.38
75217;HTU21D;63800;51.972;5.682;2023-04-03T02:41:12;2.65;82.12
75217;HTU21D;63800;51.972;5.682;2023-04-03T02:43:37;2.72;83.04
75217;HTU21D;63800;51.972;5.682;2023-04-03T02:46:03;2.60;83.29
75217;HTU21D;63800;51.972;5.682;2023-04-03T02:48:29;2.56;83.53
75217;HTU21D;63800;51.972;5.682;2023-04-03T02:50:55;2.58;83.81
75217;HTU21D;63800;51.972;5.682;2023-04-03T02:53:20;2.43;84.23
75217;HTU21D;63800;51.972;5.682;2023-04-03T02:55:46;2.41;84.75
75217;HTU21D;63800;51.972;5.682;2023-04-03T02:58:11;2.47;84.77
75217;HTU21D;63800;51.972;5.682;2023-04-03T03:00:37;2.40;84.96
75217;HTU21D;63800;51.972;5.682;2023-04-03T03:03:03;2.29;85.41
75217;HTU21D;63800;51.972;5.682;2023-04-03T03:05:28;2.27;85.57
75217;HTU21D;63800;51.972;5.682;2023-04-03T03:07:54;2.28;85.44
75217;HTU21D;63800;51.972;5.682;2023-04-03T03:10:19;2.36;84.80
75217;HTU21D;63800;51.972;5.682;2023-04-03T03:12:45;2.30;86.32
75217;HTU21D;63800;51.972;5.682;2023-04-03T03:15:11;2.25;84.58
75217;HTU21D;63800;51.972;5.682;2023-04-03T03:17:36;2.28;84.54
75217;HTU21D;63800;51.972;5.682;2023-04-03T03:20:04;2.32;84.97
75217;HTU21D;63800;51.972;5.682;2023-04-03T03:22:30;2.20;85.32
75217;HTU21D;63800;51.972;5.682;2023-04-03T03:24:55;2.17;86.15
75217;HTU21D;63800;51.972;5.682;2023-04-03T03:27:21;2.26;85.24
75217;HTU21D;63800;51.972;5.682;2023-04-03T03:29:47;2.35;84.76
75217;HTU21D;63800;51.972;5.682;2023-04-03T03:32:12;2.20;85.71
75217;HTU21D;63800;51.972;5.682;2023-04-03T03:34:38;2.31;84.73
75217;HTU21D;63800;51.972;5.682;2023-04-03T03:37:03;2.50;84.88
75217;HTU21D;63800;51.972;5.682;2023-04-03T03:39:29;2.35;84.84
75217;HTU21D;63800;51.972;5.682;2023-04-03T03:41:54;2.27;85.59
75217;HTU21D;63800;51.972;5.682;2023-04-03T03:44:20;2.29;86.12
75217;HTU21D;63800;51.972;5.682;2023-04-03T03:46:46;2.23;85.99
75217;HTU21D;63800;51.972;5.682;2023-04-03T03:49:12;2.19;86.25
75217;HTU21D;63800;51.972;5.682;2023-04-03T03:51:38;2.25;85.71
75217;HTU21D;63800;51.972;5.682;2023-04-03T03:54:04;2.17;87.04
75217;HTU21D;63800;51.972;5.682;2023-04-03T03:56:30;2.14;86.73
75217;HTU21D;63800;51.972;5.682;2023-04-03T03:58:55;2.08;87.07
75217;HTU21D;63800;51.972;5.682;2023-04-03T04:01:22;2.01;87.86
75217;HTU21D;63800;51.972;5.682;2023-04-03T04:03:48;1.97;88.64
75217;HTU21D;63800;51.972;5.682;2023-04-03T04:06:13;1.86;88.51
75217;HTU21D;63800;51.972;5.682;2023-04-03T04:08:39;1.96;87.80
75217;HTU21D;63800;51.972;5.682;2023-04-03T04:11:04;1.94;87.70
75217;HTU21D;63800;51.972;5.682;2023-04-03T04:13:30;2.02;86.93
75217;HTU21D;63800;51.972;5.682;2023-04-03T04:15:55;1.96;87.12
75217;HTU21D;63800;51.972;5.682;2023-04-03T04:18:21;2.05;87.05
75217;HTU21D;63800;51.972;5.682;2023-04-03T04:20:48;1.92;87.89
75217;HTU21D;63800;51.972;5.682;2023-04-03T04:23:13;1.95;88.38
75217;HTU21D;63800;51.972;5.682;2023-04-03T04:25:39;1.90;87.82
75217;HTU21D;63800;51.972;5.682;2023-04-03T04:28:05;1.83;88.18
75217;HTU21D;63800;51.972;5.682;2023-04-03T04:30:30;1.86;88.02
75217;HTU21D;63800;51.972;5.682;2023-04-03T04:32:56;1.64;89.05
75217;HTU21D;63800;51.972;5.682;2023-04-03T04:35:21;1.65;89.50
75217;HTU21D;63800;51.972;5.682;2023-04-03T04:37:46;1.65;89.26
75217;HTU21D;63800;51.972;5.682;2023-04-03T04:40:12;1.70;88.77
75217;HTU21D;63800;51.972;5.682;2023-04-03T04:42:37;1.68;88.06
75217;HTU21D;63800;51.972;5.682;2023-04-03T04:45:03;1.61;88.45
75217;HTU21D;63800;51.972;5.682;2023-04-03T04:47:29;1.64;88.83
75217;HTU21D;63800;51.972;5.682;2023-04-03T04:49:54;1.60;89.33
75217;HTU21D;63800;51.972;5.682;2023-04-03T04:52:20;1.67;90.02
75217;HTU21D;63800;51.972;5.682;2023-04-03T04:54:46;1.53;89.73
75217;HTU21D;63800;51.972;5.682;2023-04-03T04:57:12;1.54;88.96
75217;HTU21D;63800;51.972;5.682;2023-04-03T04:59:37;1.49;89.50
75217;HTU21D;63800;51.972;5.682;2023-04-03T05:02:02;1.47;89.87
75217;HTU21D;63800;51.972;5.682;2023-04-03T05:04:28;1.52;89.93
75217;HTU21D;63800;51.972;5.682;2023-04-03T05:06:53;1.50;90.21
75217;HTU21D;63800;51.972;5.682;2023-04-03T05:09:19;1.41;90.15
75217;HTU21D;63800;51.972;5.682;2023-04-03T05:11:45;1.47;90.95
75217;HTU21D;63800;51.972;5.682;2023-04-03T05:14:11;1.54;89.13
75217;HTU21D;63800;51.972;5.682;2023-04-03T05:16:37;1.50;90.18
75217;HTU21D;63800;51.972;5.682;2023-04-03T05:19:02;1.41;90.44
75217;HTU21D;63800;51.972;5.682;2023-04-03T05:21:28;1.57;89.68
75217;HTU21D;63800;51.972;5.682;2023-04-03T05:23:58;1.60;89.35
75217;HTU21D;63800;51.972;5.682;2023-04-03T05:26:23;1.51;90.69
75217;HTU21D;63800;51.972;5.682;2023-04-03T05:28:49;1.53;88.96
75217;HTU21D;63800;51.972;5.682;2023-04-03T05:31:14;1.54;89.38
75217;HTU21D;63800;51.972;5.682;2023-04-03T05:33:40;1.52;89.71
75217;HTU21D;63800;51.972;5.682;2023-04-03T05:36:06;1.51;89.21
75217;HTU21D;63800;51.972;5.682;2023-04-03T05:38:32;1.55;89.66
75217;HTU21D;63800;51.972;5.682;2023-04-03T05:40:57;1.61;90.14
75217;HTU21D;63800;51.972;5.682;2023-04-03T05:43:23;1.67;89.57
75217;HTU21D;63800;51.972;5.682;2023-04-03T05:45:48;1.66;88.86
75217;HTU21D;63800;51.972;5.682;2023-04-03T05:48:14;1.87;86.99
75217;HTU21D;63800;51.972;5.682;2023-04-03T05:50:40;1.91;86.24
75217;HTU21D;63800;51.972;5.682;2023-04-03T05:53:14;2.15;84.64
75217;HTU21D;63800;51.972;5.682;2023-04-03T05:55:40;2.20;85.10
75217;HTU21D;63800;51.972;5.682;2023-04-03T05:58:06;2.08;86.02
75217;HTU21D;63800;51.972;5.682;2023-04-03T06:00:31;1.98;86.48
75217;HTU21D;63800;51.972;5.682;2023-04-03T06:02:57;2.02;85.70
75217;HTU21D;63800;51.972;5.682;2023-04-03T06:05:22;2.06;86.00
75217;HTU21D;63800;51.972;5.682;2023-04-03T06:07:48;2.35;84.71
75217;HTU21D;63800;51.972;5.682;2023-04-03T06:10:15;2.23;85.12
75217;HTU21D;63800;51.972;5.682;2023-04-03T06:12:41;2.15;85.08
75217;HTU21D;63800;51.972;5.682;2023-04-03T06:15:07;2.21;84.84
75217;HTU21D;63800;51.972;5.682;2023-04-03T06:17:33;2.35;83.53
75217;HTU21D;63800;51.972;5.682;2023-04-03T06:19:59;2.20;84.00
75217;HTU21D;63800;51.972;5.682;2023-04-03T06:22:24;2.32;84.14
75217;HTU21D;63800;51.972;5.682;2023-04-03T06:24:51;2.42;83.36
75217;HTU21D;63800;51.972;5.682;2023-04-03T06:27:16;2.53;82.17
75217;HTU21D;63800;51.972;5.682;2023-04-03T06:29:42;2.39;83.27
75217;HTU21D;63800;51.972;5.682;2023-04-03T06:32:10;2.39;83.55
75217;HTU21D;63800;51.972;5.682;2023-04-03T06:34:35;2.55;84.20
75217;HTU21D;63800;51.972;5.682;2023-04-03T06:37:01;2.67;82.49
75217;HTU21D;63800;51.972;5.682;2023-04-03T06:39:26;2.67;81.27
75217;HTU21D;63800;51.972;5.682;2023-04-03T06:41:52;2.65;82.32
75217;HTU21D;63800;51.972;5.682;2023-04-03T06:44:18;3.01;80.41
75217;HTU21D;63800;51.972;5.682;2023-04-03T06:46:44;2.78;81.41
75217;HTU21D;63800;51.972;5.682;2023-04-03T06:49:10;2.99;80.01
75217;HTU21D;63800;51.972;5.682;2023-04-03T06:51:36;2.90;81.59
75217;HTU21D;63800;51.972;5.682;2023-04-03T06:54:03;2.76;81.75
75217;HTU21D;63800;51.972;5.682;2023-04-03T06:56:29;2.83;81.04
75217;HTU21D;63800;51.972;5.682;2023-04-03T06:58:55;2.87;81.27
75217;HTU21D;63800;51.972;5.682;2023-04-03T07:01:23;3.05;80.70
75217;HTU21D;63800;51.972;5.682;2023-04-03T07:03:50;3.10;79.62
75217;HTU21D;63800;51.972;5.682;2023-04-03T07:06:16;3.39;77.89
75217;HTU21D;63800;51.972;5.682;2023-04-03T07:08:43;3.99;75.85
75217;HTU21D;63800;51.972;5.682;2023-04-03T07:11:10;4.15;75.49
75217;HTU21D;63800;51.972;5.682;2023-04-03T07:13:36;4.07;75.86
75217;HTU21D;63800;51.972;5.682;2023-04-03T07:16:02;3.89;75.67
75217;HTU21D;63800;51.972;5.682;2023-04-03T07:18:30;3.91;75.59
75217;HTU21D;63800;51.972;5.682;2023-04-03T07:20:56;3.84;75.13
75217;HTU21D;63800;51.972;5.682;2023-04-03T07:23:21;3.82;76.79
75217;HTU21D;63800;51.972;5.682;2023-04-03T07:25:48;3.90;77.14
75217;HTU21D;63800;51.972;5.682;2023-04-03T07:28:16;3.97;75.02
75217;HTU21D;63800;51.972;5.682;2023-04-03T07:30:53;4.06;75.61
75217;HTU21D;63800;51.972;5.682;2023-04-03T07:33:20;4.08;73.76
75217;HTU21D;63800;51.972;5.682;2023-04-03T07:35:46;4.10;73.38
75217;HTU21D;63800;51.972;5.682;2023-04-03T07:38:12;4.23;73.12
75217;HTU21D;63800;51.972;5.682;2023-04-03T07:40:39;4.29;71.49
75217;HTU21D;63800;51.972;5.682;2023-04-03T07:43:05;4.50;71.61
75217;HTU21D;63800;51.972;5.682;2023-04-03T07:45:31;4.50;70.96
75217;HTU21D;63800;51.972;5.682;2023-04-03T07:47:57;4.74;70.87
75217;HTU21D;63800;51.972;5.682;2023-04-03T07:50:23;4.57;71.63
75217;HTU21D;63800;51.972;5.682;2023-04-03T07:52:48;4.48;72.33
75217;HTU21D;63800;51.972;5.682;2023-04-03T07:55:16;4.59;70.40
75217;HTU21D;63800;51.972;5.682;2023-04-03T07:57:41;4.53;70.59
75217;HTU21D;63800;51.972;5.682;2023-04-03T08:00:08;4.66;70.50
75217;HTU21D;63800;51.972;5.682;2023-04-03T08:02:34;4.75;67.17
75217;HTU21D;63800;51.972;5.682;2023-04-03T08:04:59;4.71;65.61
75217;HTU21D;63800;51.972;5.682;2023-04-03T08:07:25;4.83;64.97
75217;HTU21D;63800;51.972;5.682;2023-04-03T08:09:50;4.87;66.25
75217;HTU21D;63800;51.972;5.682;2023-04-03T08:12:16;5.03;64.96
75217;HTU21D;63800;51.972;5.682;2023-04-03T08:14:41;5.26;64.02
75217;HTU21D;63800;51.972;5.682;2023-04-03T08:17:08;5.20;64.14
75217;HTU21D;63800;51.972;5.682;2023-04-03T08:19:37;5.26;65.14
75217;HTU21D;63800;51.972;5.682;2023-04-03T08:22:03;5.42;63.76
75217;HTU21D;63800;51.972;5.682;2023-04-03T08:24:31;5.33;62.47
75217;HTU21D;63800;51.972;5.682;2023-04-03T08:26:56;5.49;60.22
75217;HTU21D;63800;51.972;5.682;2023-04-03T08:29:23;5.48;58.02
75217;HTU21D;63800;51.972;5.682;2023-04-03T08:31:49;5.52;56.85
75217;HTU21D;63800;51.972;5.682;2023-04-03T08:34:15;5.68;58.62
75217;HTU21D;63800;51.972;5.682;2023-04-03T08:36:41;5.63;52.98
75217;HTU21D;63800;51.972;5.682;2023-04-03T08:39:07;5.67;54.42
75217;HTU21D;63800;51.972;5.682;2023-04-03T08:41:34;5.80;56.56
75217;HTU21D;63800;51.972;5.682;2023-04-03T08:49:43;6.10;47.22
75217;HTU21D;63800;51.972;5.682;2023-04-03T08:52:19;6.20;50.47
75217;HTU21D;63800;51.972;5.682;2023-04-03T08:54:54;6.36;46.88
75217;HTU21D;63800;51.972;5.682;2023-04-03T08:57:28;6.21;45.28
75217;HTU21D;63800;51.972;5.682;2023-04-03T08:59:55;6.24;48.31
75217;HTU21D;63800;51.972;5.682;2023-04-03T09:02:33;6.33;45.79
75217;HTU21D;63800;51.972;5.682;2023-04-03T09:04:58;6.27;44.86
75217;HTU21D;63800;51.972;5.682;2023-04-03T09:07:42;6.35;43.41
75217;HTU21D;63800;51.972;5.682;2023-04-03T09:10:11;6.45;43.29
75217;HTU21D;63800;51.972;5.682;2023-04-03T09:12:41;6.52;42.64
75217;HTU21D;63800;51.972;5.682;2023-04-03T09:15:19;6.63;42.90
75217;HTU21D;63800;51.972;5.682;2023-04-03T09:21:08;6.75;38.47
75217;HTU21D;63800;51.972;5.682;2023-04-03T09:26:07;6.76;35.76
75217;HTU21D;63800;51.972;5.682;2023-04-03T09:28:38;6.89;38.87
75217;HTU21D;63800;51.972;5.682;2023-04-03T09:31:23;6.98;39.04
75217;HTU21D;63800;51.972;5.682;2023-04-03T09:33:52;7.05;39.20
75217;HTU21D;63800;51.972;5.682;2023-04-03T09:36:47;7.09;38.59
75217;HTU21D;63800;51.972;5.682;2023-04-03T09:39:16;7.25;37.24
75217;HTU21D;63800;51.972;5.682;2023-04-03T09:42:03;7.39;38.85
75217;HTU21D;63800;51.972;5.682;2023-04-03T09:44:34;7.56;40.84
75217;HTU21D;63800;51.972;5.682;2023-04-03T09:47:18;7.52;37.14
75217;HTU21D;63800;51.972;5.682;2023-04-03T09:49:43;7.56;37.87
75217;HTU21D;63800;51.972;5.682;2023-04-03T09:52:20;7.54;37.52
75217;HTU21D;63800;51.972;5.682;2023-04-03T09:54:48;7.67;37.18
75217;HTU21D;63800;51.972;5.682;2023-04-03T09:57:13;7.72;37.64
75217;HTU21D;63800;51.972;5.682;2023-04-03T09:59:44;7.85;36.74
75217;HTU21D;63800;51.972;5.682;2023-04-03T10:02:21;7.83;36.93
75217;HTU21D;63800;51.972;5.682;2023-04-03T10:04:47;7.69;34.62
75217;HTU21D;63800;51.972;5.682;2023-04-03T10:07:36;7.97;34.98
75217;HTU21D;63800;51.972;5.682;2023-04-03T10:12:40;8.59;38.36
75217;HTU21D;63800;51.972;5.682;2023-04-03T10:15:18;8.91;38.66
75217;HTU21D;63800;51.972;5.682;2023-04-03T10:23:20;9.20;36.22
75217;HTU21D;63800;51.972;5.682;2023-04-03T10:26:34;9.70;36.30
75217;HTU21D;63800;51.972;5.682;2023-04-03T10:32:43;10.57;36.56
75217;HTU21D;63800;51.972;5.682;2023-04-03T10:38:26;11.40;31.36
75217;HTU21D;63800;51.972;5.682;2023-04-03T10:49:32;12.48;32.71
75217;HTU21D;63800;51.972;5.682;2023-04-03T10:54:39;12.93;35.78
75217;HTU21D;63800;51.972;5.682;2023-04-03T10:57:09;12.92;31.66
75217;HTU21D;63800;51.972;5.682;2023-04-03T10:59:38;13.12;35.75
75217;HTU21D;63800;51.972;5.682;2023-04-03T11:02:25;13.40;33.02
75217;HTU21D;63800;51.972;5.682;2023-04-03T11:04:55;13.53;32.24
75217;HTU21D;63800;51.972;5.682;2023-04-03T11:07:33;13.26;31.91
75217;HTU21D;63800;51.972;5.682;2023-04-03T11:10:10;14.01;32.31
75217;HTU21D;63800;51.972;5.682;2023-04-03T11:12:42;14.13;31.95
75217;HTU21D;63800;51.972;5.682;2023-04-03T11:15:16;14.15;31.52
75217;HTU21D;63800;51.972;5.682;2023-04-03T11:17:55;13.98;34.16
75217;HTU21D;63800;51.972;5.682;2023-04-03T11:20:31;14.55;32.87
75217;HTU21D;63800;51.972;5.682;2023-04-03T11:23:06;14.41;32.86
75217;HTU21D;63800;51.972;5.682;2023-04-03T11:25:34;14.39;30.61
75217;HTU21D;63800;51.972;5.682;2023-04-03T11:28:04;14.98;29.44
75217;HTU21D;63800;51.972;5.682;2023-04-03T11:35:46;15.01;30.37
75217;HTU21D;63800;51.972;5.682;2023-04-03T11:38:42;15.09;30.45
75217;HTU21D;63800;51.972;5.682;2023-04-03T11:41:09;13.58;27.49
75217;HTU21D;63800;51.972;5.682;2023-04-03T11:43:41;14.87;29.90
75217;HTU21D;63800;51.972;5.682;2023-04-03T11:46:08;15.00;29.84
75217;HTU21D;63800;51.972;5.682;2023-04-03T11:53:45;15.04;28.19
75217;HTU21D;63800;51.972;5.682;2023-04-03T12:01:44;15.52;30.64
75217;HTU21D;63800;51.972;5.682;2023-04-03T12:04:11;15.76;30.99
75217;HTU21D;63800;51.972;5.682;2023-04-03T12:09:29;15.18;29.19
75217;HTU21D;63800;51.972;5.682;2023-04-03T12:11:59;15.58;28.54
75217;HTU21D;63800;51.972;5.682;2023-04-03T12:14:27;16.00;26.59
75217;HTU21D;63800;51.972;5.682;2023-04-03T12:16:54;15.57;29.70
75217;HTU21D;63800;51.972;5.682;2023-04-03T12:19:39;14.66;28.74
75217;HTU21D;63800;51.972;5.682;2023-04-03T12:22:14;15.55;27.09
75217;HTU21D;63800;51.972;5.682;2023-04-03T12:24:46;15.17;29.39
75217;HTU21D;63800;51.972;5.682;2023-04-03T12:27:23;15.70;27.93
75217;HTU21D;63800;51.972;5.682;2023-04-03T12:29:56;16.14;29.09
75217;HTU21D;63800;51.972;5.682;2023-04-03T12:45:41;16.19;29.71
75217;HTU21D;63800;51.972;5.682;2023-04-03T12:48:15;15.59;28.52
75217;HTU21D;63800;51.972;5.682;2023-04-03T12:50:43;16.06;29.48
75217;HTU21D;63800;51.972;5.682;2023-04-03T12:53:23;15.93;31.54
75217;HTU21D;63800;51.972;5.682;2023-04-03T12:55:57;15.80;28.06
75217;HTU21D;63800;51.972;5.682;2023-04-03T12:58:24;15.88;29.11
75217;HTU21D;63800;51.972;5.682;2023-04-03T13:01:25;15.56;30.67
75217;HTU21D;63800;51.972;5.682;2023-04-03T13:03:56;16.26;32.68
75217;HTU21D;63800;51.972;5.682;2023-04-03T13:06:28;15.85;32.66
75217;HTU21D;63800;51.972;5.682;2023-04-03T13:08:58;15.88;30.96
75217;HTU21D;63800;51.972;5.682;2023-04-03T13:11:28;15.88;31.06
75217;HTU21D;63800;51.972;5.682;2023-04-03T13:13:57;15.87;30.84
75217;HTU21D;63800;51.972;5.682;2023-04-03T13:16:22;15.69;30.23
75217;HTU21D;63800;51.972;5.682;2023-04-03T13:18:52;16.36;29.70
75217;HTU21D;63800;51.972;5.682;2023-04-03T13:21:21;15.75;27.62
75217;HTU21D;63800;51.972;5.682;2023-04-03T13:23:51;16.01;28.55
75217;HTU21D;63800;51.972;5.682;2023-04-03T13:26:18;15.70;29.76
75217;HTU21D;63800;51.972;5.682;2023-04-03T13:28:45;15.93;30.24
75217;HTU21D;63800;51.972;5.682;2023-04-03T13:31:26;15.30;31.31
75217;HTU21D;63800;51.972;5.682;2023-04-03T13:33:54;15.58;27.01
75217;HTU21D;63800;51.972;5.682;2023-04-03T13:36:23;15.82;27.30
75217;HTU21D;63800;51.972;5.682;2023-04-03T13:41:40;15.41;28.74
75217;HTU21D;63800;51.972;5.682;2023-04-03T13:44:27;15.97;30.29
75217;HTU21D;63800;51.972;5.682;2023-04-03T13:46:55;15.47;28.08
75217;HTU21D;63800;51.972;5.682;2023-04-03T13:51:57;15.69;29.88
75217;HTU21D;63800;51.972;5.682;2023-04-03T13:54:33;15.46;29.42
75217;HTU21D;63800;51.972;5.682;2023-04-03T13:57:01;15.15;28.26
75217;HTU21D;63800;51.972;5.682;2023-04-03T13:59:29;15.57;31.36
75217;HTU21D;63800;51.972;5.682;2023-04-03T14:04:29;14.42;33.95
75217;HTU21D;63800;51.972;5.682;2023-04-03T14:06:55;14.58;29.41
75217;HTU21D;63800;51.972;5.682;2023-04-03T14:09:22;14.68;30.39
75217;HTU21D;63800;51.972;5.682;2023-04-03T14:11:50;14.65;31.57
75217;HTU21D;63800;51.972;5.682;2023-04-03T14:14:27;15.08;30.35
75217;HTU21D;63800;51.972;5.682;2023-04-03T14:16:57;14.96;32.08
75217;HTU21D;63800;51.972;5.682;2023-04-03T14:19:30;14.50;29.37
75217;HTU21D;63800;51.972;5.682;2023-04-03T14:21:57;14.14;30.11
75217;HTU21D;63800;51.972;5.682;2023-04-03T14:24:23;14.47;32.41
75217;HTU21D;63800;51.972;5.682;2023-04-03T14:26:51;14.29;31.49
75217;HTU21D;63800;51.972;5.682;2023-04-03T14:29:18;14.32;33.55
75217;HTU21D;63800;51.972;5.682;2023-04-03T14:31:45;13.90;31.70
75217;HTU21D;63800;51.972;5.682;2023-04-03T14:34:11;13.90;32.59
75217;HTU21D;63800;51.972;5.682;2023-04-03T14:36:38;13.81;32.17
75217;HTU21D;63800;51.972;5.682;2023-04-03T14:39:05;14.42;32.81
75217;HTU21D;63800;51.972;5.682;2023-04-03T14:41:32;14.19;34.11
75217;HTU21D;63800;51.972;5.682;2023-04-03T14:43:57;13.84;33.90
75217;HTU21D;63800;51.972;5.682;2023-04-03T14:46:29;13.69;32.63
75217;HTU21D;63800;51.972;5.682;2023-04-03T14:48:55;13.65;33.21
75217;HTU21D;63800;51.972;5.682;2023-04-03T14:51:20;13.45;33.69
75217;HTU21D;63800;51.972;5.682;2023-04-03T14:53:46;13.46;34.62
75217;HTU21D;63800;51.972;5.682;2023-04-03T14:56:26;13.02;34.82
75217;HTU21D;63800;51.972;5.682;2023-04-03T14:58:58;13.00;32.59
75217;HTU21D;63800;51.972;5.682;2023-04-03T15:01:24;12.52;35.79
75217;HTU21D;63800;51.972;5.682;2023-04-03T15:03:50;12.30;37.29
75217;HTU21D;63800;51.972;5.682;2023-04-03T15:06:16;12.32;35.80
75217;HTU21D;63800;51.972;5.682;2023-04-03T15:08:42;11.87;37.91
75217;HTU21D;63800;51.972;5.682;2023-04-03T15:11:10;12.06;35.67
75217;HTU21D;63800;51.972;5.682;2023-04-03T15:13:36;11.93;37.51
75217;HTU21D;63800;51.972;5.682;2023-04-03T15:16:02;12.17;37.75
75217;HTU21D;63800;51.972;5.682;2023-04-03T15:18:33;12.22;36.43
75217;HTU21D;63800;51.972;5.682;2023-04-03T15:21:00;11.87;38.05
75217;HTU21D;63800;51.972;5.682;2023-04-03T15:23:25;11.89;39.18
75217;HTU21D;63800;51.972;5.682;2023-04-03T15:25:52;11.58;37.91
75217;HTU21D;63800;51.972;5.682;2023-04-03T15:28:23;11.44;38.69
75217;HTU21D;63800;51.972;5.682;2023-04-03T15:30:51;11.29;39.97
75217;HTU21D;63800;51.972;5.682;2023-04-03T15:33:17;11.05;42.39
75217;HTU21D;63800;51.972;5.682;2023-04-03T15:35:43;11.34;40.39
75217;HTU21D;63800;51.972;5.682;2023-04-03T15:38:08;11.29;38.85
75217;HTU21D;63800;51.972;5.682;2023-04-03T15:40:34;11.27;38.69
75217;HTU21D;63800;51.972;5.682;2023-04-03T15:43:00;11.01;38.13
75217;HTU21D;63800;51.972;5.682;2023-04-03T15:45:28;11.02;41.66
75217;HTU21D;63800;51.972;5.682;2023-04-03T15:47:55;10.94;41.02
75217;HTU21D;63800;51.972;5.682;2023-04-03T15:50:20;10.98;41.33
75217;HTU21D;63800;51.972;5.682;2023-04-03T15:52:48;11.00;39.53
75217;HTU21D;63800;51.972;5.682;2023-04-03T15:55:16;10.88;39.91
75217;HTU21D;63800;51.972;5.682;2023-04-03T15:57:42;10.75;40.53
75217;HTU21D;63800;51.972;5.682;2023-04-03T16:00:08;10.66;40.33
75217;HTU21D;63800;51.972;5.682;2023-04-03T16:02:33;10.42;40.35
75217;HTU21D;63800;51.972;5.682;2023-04-03T16:04:59;10.59;41.73
75217;HTU21D;63800;51.972;5.682;2023-04-03T16:07:25;10.24;41.63
75217;HTU21D;63800;51.972;5.682;2023-04-03T16:09:51;10.23;43.00
75217;HTU21D;63800;51.972;5.682;2023-04-03T16:12:17;10.49;43.05
75217;HTU21D;63800;51.972;5.682;2023-04-03T16:14:42;10.24;42.25
75217;HTU21D;63800;51.972;5.682;2023-04-03T16:17:08;10.39;41.59
75217;HTU21D;63800;51.972;5.682;2023-04-03T16:19:33;10.37;40.70
75217;HTU21D;63800;51.972;5.682;2023-04-03T16:21:59;10.27;40.91
75217;HTU21D;63800;51.972;5.682;2023-04-03T16:24:24;10.29;41.82
75217;HTU21D;63800;51.972;5.682;2023-04-03T16:26:49;10.28;41.12
75217;HTU21D;63800;51.972;5.682;2023-04-03T16:29:15;10.25;42.19
75217;HTU21D;63800;51.972;5.682;2023-04-03T16:31:41;10.09;44.16
75217;HTU21D;63800;51.972;5.682;2023-04-03T16:34:06;10.39;41.93
75217;HTU21D;63800;51.972;5.682;2023-04-03T16:36:32;10.11;41.78
75217;HTU21D;63800;51.972;5.682;2023-04-03T16:38:57;10.00;44.66
75217;HTU21D;63800;51.972;5.682;2023-04-03T16:41:22;9.96;42.86
75217;HTU21D;63800;51.972;5.682;2023-04-03T16:43:48;9.81;43.19
75217;HTU21D;63800;51.972;5.682;2023-04-03T16:46:15;9.83;44.73
75217;HTU21D;63800;51.972;5.682;2023-04-03T16:48:40;9.95;43.12
75217;HTU21D;63800;51.972;5.682;2023-04-03T16:51:06;9.95;43.42
75217;HTU21D;63800;51.972;5.682;2023-04-03T16:53:31;9.75;43.87